sensor_id;sensor_type;location;lat;lon;timestamp;pressure;altitude;pressure_sealevel;temperature
65823;BMP180;52585;47.566;19.056;2023-02-18T00:01:27;100576.40;;;11.30
65823;BMP180;52585;47.566;19.056;2023-02-18T00:03:58;100566.00;;;11.30
65823;BMP180;52585;47.566;19.056;2023-02-18T00:06:34;100576.00;;;11.40
65823;BMP180;52585;47.566;19.056;2023-02-18T00:09:02;100568.00;;;11.48
65823;BMP180;52585;47.566;19.056;2023-02-18T00:11:31;100565.00;;;11.50
65823;BMP180;52585;47.566;19.056;2023-02-18T00:14:01;100563.60;;;11.50
65823;BMP180;52585;47.566;19.056;2023-02-18T00:16:28;100557.80;;;11.50
65823;BMP180;52585;47.566;19.056;2023-02-18T00:19:03;100551.80;;;11.50
65823;BMP180;52585;47.566;19.056;2023-02-18T00:21:29;100556.20;;;11.50
65823;BMP180;52585;47.566;19.056;2023-02-18T00:23:56;100557.00;;;11.50
65823;BMP180;52585;47.566;19.056;2023-02-18T00:26:22;100549.20;;;11.60
65823;BMP180;52585;47.566;19.056;2023-02-18T00:28:48;100554.80;;;11.60
65823;BMP180;52585;47.566;19.056;2023-02-18T00:31:25;100552.00;;;11.60
65823;BMP180;52585;47.566;19.056;2023-02-18T00:33:53;100552.40;;;11.60
65823;BMP180;52585;47.566;19.056;2023-02-18T00:36:21;100550.60;;;11.60
65823;BMP180;52585;47.566;19.056;2023-02-18T00:38:54;100550.40;;;11.60
65823;BMP180;52585;47.566;19.056;2023-02-18T00:41:22;100551.00;;;11.60
65823;BMP180;52585;47.566;19.056;2023-02-18T00:43:48;100543.60;;;11.60
65823;BMP180;52585;47.566;19.056;2023-02-18T00:46:15;100546.80;;;11.60
65823;BMP180;52585;47.566;19.056;2023-02-18T00:48:41;100549.80;;;11.60
65823;BMP180;52585;47.566;19.056;2023-02-18T00:51:07;100554.60;;;11.62
65823;BMP180;52585;47.566;19.056;2023-02-18T00:53:34;100547.00;;;11.70
65823;BMP180;52585;47.566;19.056;2023-02-18T00:56:00;100548.00;;;11.70
65823;BMP180;52585;47.566;19.056;2023-02-18T00:58:27;100544.40;;;11.70
65823;BMP180;52585;47.566;19.056;2023-02-18T01:00:54;100544.60;;;11.70
65823;BMP180;52585;47.566;19.056;2023-02-18T01:03:20;100531.60;;;11.70
65823;BMP180;52585;47.566;19.056;2023-02-18T01:05:49;100534.60;;;11.70
65823;BMP180;52585;47.566;19.056;2023-02-18T01:08:17;100525.20;;;11.80
65823;BMP180;52585;47.566;19.056;2023-02-18T01:10:46;100538.80;;;11.80
65823;BMP180;52585;47.566;19.056;2023-02-18T01:13:14;100530.60;;;11.80
65823;BMP180;52585;47.566;19.056;2023-02-18T01:15:41;100535.60;;;11.80
65823;BMP180;52585;47.566;19.056;2023-02-18T01:18:08;100531.80;;;11.80
65823;BMP180;52585;47.566;19.056;2023-02-18T01:20:35;100524.40;;;11.80
65823;BMP180;52585;47.566;19.056;2023-02-18T01:23:02;100524.00;;;11.82
65823;BMP180;52585;47.566;19.056;2023-02-18T01:25:29;100531.20;;;11.84
65823;BMP180;52585;47.566;19.056;2023-02-18T01:27:55;100527.80;;;11.90
65823;BMP180;52585;47.566;19.056;2023-02-18T01:30:22;100528.00;;;11.90
65823;BMP180;52585;47.566;19.056;2023-02-18T01:32:48;100530.40;;;11.90
65823;BMP180;52585;47.566;19.056;2023-02-18T01:35:17;100527.80;;;11.98
65823;BMP180;52585;47.566;19.056;2023-02-18T01:37:43;100524.60;;;12.00
65823;BMP180;52585;47.566;19.056;2023-02-18T01:40:12;100517.80;;;12.00
65823;BMP180;52585;47.566;19.056;2023-02-18T01:42:39;100518.80;;;12.08
65823;BMP180;52585;47.566;19.056;2023-02-18T01:45:49;100525.60;;;12.08
65823;BMP180;52585;47.566;19.056;2023-02-18T01:48:31;100521.60;;;12.10
65823;BMP180;52585;47.566;19.056;2023-02-18T01:51:27;100530.20;;;12.10
65823;BMP180;52585;47.566;19.056;2023-02-18T01:56:36;100507.00;;;12.10
65823;BMP180;52585;47.566;19.056;2023-02-18T01:59:10;100504.80;;;12.16
65823;BMP180;52585;47.566;19.056;2023-02-18T02:01:41;100512.20;;;12.26
65823;BMP180;52585;47.566;19.056;2023-02-18T02:04:08;100505.20;;;12.30
65823;BMP180;52585;47.566;19.056;2023-02-18T02:06:35;100507.60;;;12.30
65823;BMP180;52585;47.566;19.056;2023-02-18T02:09:04;100501.00;;;12.34
65823;BMP180;52585;47.566;19.056;2023-02-18T02:11:43;100494.60;;;12.40
65823;BMP180;52585;47.566;19.056;2023-02-18T02:15:04;100495.40;;;12.40
65823;BMP180;52585;47.566;19.056;2023-02-18T02:20:35;100479.80;;;12.44
65823;BMP180;52585;47.566;19.056;2023-02-18T02:32:02;100502.40;;;12.44
65823;BMP180;52585;47.566;19.056;2023-02-18T02:34:42;100510.80;;;12.50
65823;BMP180;52585;47.566;19.056;2023-02-18T02:40:24;100496.00;;;12.50
65823;BMP180;52585;47.566;19.056;2023-02-18T02:51:42;100509.60;;;12.60
65823;BMP180;52585;47.566;19.056;2023-02-18T02:54:25;100516.40;;;12.60
65823;BMP180;52585;47.566;19.056;2023-02-18T02:59:31;100492.80;;;12.60
65823;BMP180;52585;47.566;19.056;2023-02-18T03:10:43;100522.80;;;12.50
65823;BMP180;52585;47.566;19.056;2023-02-18T03:13:34;100519.60;;;12.54
65823;BMP180;52585;47.566;19.056;2023-02-18T03:26:35;100526.40;;;12.70
65823;BMP180;52585;47.566;19.056;2023-02-18T03:29:07;100523.60;;;12.70
65823;BMP180;52585;47.566;19.056;2023-02-18T03:31:37;100524.80;;;12.70
65823;BMP180;52585;47.566;19.056;2023-02-18T03:34:12;100528.20;;;12.70
65823;BMP180;52585;47.566;19.056;2023-02-18T03:36:41;100531.60;;;12.70
65823;BMP180;52585;47.566;19.056;2023-02-18T03:39:15;100529.40;;;12.60
65823;BMP180;52585;47.566;19.056;2023-02-18T03:41:42;100519.60;;;12.60
65823;BMP180;52585;47.566;19.056;2023-02-18T03:44:10;100524.20;;;12.60
65823;BMP180;52585;47.566;19.056;2023-02-18T03:46:40;100522.20;;;12.60
65823;BMP180;52585;47.566;19.056;2023-02-18T03:49:12;100528.40;;;12.60
65823;BMP180;52585;47.566;19.056;2023-02-18T03:51:40;100517.20;;;12.58
65823;BMP180;52585;47.566;19.056;2023-02-18T03:54:05;100526.20;;;12.56
65823;BMP180;52585;47.566;19.056;2023-02-18T03:56:32;100534.80;;;12.50
65823;BMP180;52585;47.566;19.056;2023-02-18T03:58:58;100538.40;;;12.50
65823;BMP180;52585;47.566;19.056;2023-02-18T04:01:24;100533.00;;;12.54
65823;BMP180;52585;47.566;19.056;2023-02-18T04:03:49;100540.40;;;12.60
65823;BMP180;52585;47.566;19.056;2023-02-18T04:06:15;100527.60;;;12.60
65823;BMP180;52585;47.566;19.056;2023-02-18T04:08:41;100530.80;;;12.60
65823;BMP180;52585;47.566;19.056;2023-02-18T04:11:07;100530.60;;;12.70
65823;BMP180;52585;47.566;19.056;2023-02-18T04:13:32;100540.40;;;12.70
65823;BMP180;52585;47.566;19.056;2023-02-18T04:15:58;100531.60;;;12.68
65823;BMP180;52585;47.566;19.056;2023-02-18T04:18:24;100528.40;;;12.70
65823;BMP180;52585;47.566;19.056;2023-02-18T04:20:49;100539.80;;;12.70
65823;BMP180;52585;47.566;19.056;2023-02-18T04:23:15;100534.60;;;12.70
65823;BMP180;52585;47.566;19.056;2023-02-18T04:25:40;100542.20;;;12.80
65823;BMP180;52585;47.566;19.056;2023-02-18T04:28:06;100530.60;;;12.80
65823;BMP180;52585;47.566;19.056;2023-02-18T04:30:31;100546.40;;;12.80
65823;BMP180;52585;47.566;19.056;2023-02-18T04:32:57;100536.00;;;12.80
65823;BMP180;52585;47.566;19.056;2023-02-18T04:35:23;100541.60;;;12.78
65823;BMP180;52585;47.566;19.056;2023-02-18T04:37:49;100532.00;;;12.80
65823;BMP180;52585;47.566;19.056;2023-02-18T04:40:15;100544.40;;;12.70
65823;BMP180;52585;47.566;19.056;2023-02-18T04:42:40;100547.20;;;12.70
65823;BMP180;52585;47.566;19.056;2023-02-18T04:45:07;100558.60;;;12.70
65823;BMP180;52585;47.566;19.056;2023-02-18T04:47:33;100555.60;;;12.70
65823;BMP180;52585;47.566;19.056;2023-02-18T04:49:58;100554.20;;;12.70
65823;BMP180;52585;47.566;19.056;2023-02-18T04:52:25;100556.20;;;12.70
65823;BMP180;52585;47.566;19.056;2023-02-18T04:54:51;100555.80;;;12.70
65823;BMP180;52585;47.566;19.056;2023-02-18T04:57:17;100559.20;;;12.70
65823;BMP180;52585;47.566;19.056;2023-02-18T04:59:42;100570.60;;;12.78
65823;BMP180;52585;47.566;19.056;2023-02-18T05:02:08;100572.60;;;12.80
65823;BMP180;52585;47.566;19.056;2023-02-18T05:04:34;100579.20;;;12.70
65823;BMP180;52585;47.566;19.056;2023-02-18T05:06:59;100580.60;;;12.70
65823;BMP180;52585;47.566;19.056;2023-02-18T05:09:25;100580.20;;;12.70
65823;BMP180;52585;47.566;19.056;2023-02-18T05:11:51;100581.60;;;12.70
65823;BMP180;52585;47.566;19.056;2023-02-18T05:14:17;100586.20;;;12.68
65823;BMP180;52585;47.566;19.056;2023-02-18T05:16:43;100591.00;;;12.60
65823;BMP180;52585;47.566;19.056;2023-02-18T05:19:15;100592.60;;;12.60
65823;BMP180;52585;47.566;19.056;2023-02-18T05:21:41;100609.20;;;12.60
65823;BMP180;52585;47.566;19.056;2023-02-18T05:24:08;100616.60;;;12.60
65823;BMP180;52585;47.566;19.056;2023-02-18T05:26:34;100615.40;;;12.60
65823;BMP180;52585;47.566;19.056;2023-02-18T05:29:00;100619.40;;;12.56
65823;BMP180;52585;47.566;19.056;2023-02-18T05:31:26;100622.40;;;12.50
65823;BMP180;52585;47.566;19.056;2023-02-18T05:33:51;100627.40;;;12.50
65823;BMP180;52585;47.566;19.056;2023-02-18T05:36:17;100630.40;;;12.50
65823;BMP180;52585;47.566;19.056;2023-02-18T05:38:42;100629.80;;;12.40
65823;BMP180;52585;47.566;19.056;2023-02-18T05:41:08;100640.00;;;12.40
65823;BMP180;52585;47.566;19.056;2023-02-18T05:43:34;100642.80;;;12.40
65823;BMP180;52585;47.566;19.056;2023-02-18T05:46:19;100645.40;;;12.34
65823;BMP180;52585;47.566;19.056;2023-02-18T05:48:45;100644.60;;;12.30
65823;BMP180;52585;47.566;19.056;2023-02-18T05:51:10;100648.20;;;12.30
65823;BMP180;52585;47.566;19.056;2023-02-18T05:53:36;100649.40;;;12.30
65823;BMP180;52585;47.566;19.056;2023-02-18T05:56:02;100648.60;;;12.30
65823;BMP180;52585;47.566;19.056;2023-02-18T05:58:28;100660.80;;;12.24
65823;BMP180;52585;47.566;19.056;2023-02-18T06:00:53;100654.80;;;12.20
65823;BMP180;52585;47.566;19.056;2023-02-18T06:03:19;100661.60;;;12.20
65823;BMP180;52585;47.566;19.056;2023-02-18T06:05:49;100658.60;;;12.14
65823;BMP180;52585;47.566;19.056;2023-02-18T06:08:15;100664.00;;;12.10
65823;BMP180;52585;47.566;19.056;2023-02-18T06:10:40;100661.60;;;12.10
65823;BMP180;52585;47.566;19.056;2023-02-18T06:13:06;100679.00;;;12.10
65823;BMP180;52585;47.566;19.056;2023-02-18T06:15:32;100678.80;;;12.10
65823;BMP180;52585;47.566;19.056;2023-02-18T06:17:57;100680.40;;;12.10
65823;BMP180;52585;47.566;19.056;2023-02-18T06:20:23;100681.80;;;12.10
65823;BMP180;52585;47.566;19.056;2023-02-18T06:22:48;100681.60;;;12.10
65823;BMP180;52585;47.566;19.056;2023-02-18T06:25:14;100684.00;;;12.00
65823;BMP180;52585;47.566;19.056;2023-02-18T06:27:40;100685.20;;;12.00
65823;BMP180;52585;47.566;19.056;2023-02-18T06:30:06;100688.40;;;12.00
65823;BMP180;52585;47.566;19.056;2023-02-18T06:32:32;100687.60;;;12.00
65823;BMP180;52585;47.566;19.056;2023-02-18T06:34:58;100690.80;;;12.00
65823;BMP180;52585;47.566;19.056;2023-02-18T06:37:23;100690.00;;;12.00
65823;BMP180;52585;47.566;19.056;2023-02-18T06:39:49;100698.00;;;12.00
65823;BMP180;52585;47.566;19.056;2023-02-18T06:42:15;100696.40;;;12.00
65823;BMP180;52585;47.566;19.056;2023-02-18T06:44:40;100689.20;;;12.00
65823;BMP180;52585;47.566;19.056;2023-02-18T06:47:06;100697.00;;;11.98
65823;BMP180;52585;47.566;19.056;2023-02-18T06:49:32;100683.40;;;12.00
65823;BMP180;52585;47.566;19.056;2023-02-18T06:51:57;100681.80;;;11.98
65823;BMP180;52585;47.566;19.056;2023-02-18T06:54:23;100682.40;;;11.98
65823;BMP180;52585;47.566;19.056;2023-02-18T06:56:49;100691.80;;;12.00
65823;BMP180;52585;47.566;19.056;2023-02-18T06:59:15;100698.60;;;12.00
65823;BMP180;52585;47.566;19.056;2023-02-18T07:01:41;100703.00;;;12.00
65823;BMP180;52585;47.566;19.056;2023-02-18T07:04:07;100702.80;;;12.00
65823;BMP180;52585;47.566;19.056;2023-02-18T07:06:33;100698.00;;;12.00
65823;BMP180;52585;47.566;19.056;2023-02-18T07:08:59;100700.20;;;12.00
65823;BMP180;52585;47.566;19.056;2023-02-18T07:11:24;100698.40;;;12.00
65823;BMP180;52585;47.566;19.056;2023-02-18T07:13:50;100703.20;;;12.00
65823;BMP180;52585;47.566;19.056;2023-02-18T07:16:15;100703.80;;;12.00
65823;BMP180;52585;47.566;19.056;2023-02-18T07:18:41;100702.00;;;12.00
65823;BMP180;52585;47.566;19.056;2023-02-18T07:21:07;100709.80;;;12.02
65823;BMP180;52585;47.566;19.056;2023-02-18T07:23:33;100707.80;;;12.08
65823;BMP180;52585;47.566;19.056;2023-02-18T07:26:08;100701.80;;;12.10
65823;BMP180;52585;47.566;19.056;2023-02-18T07:28:34;100709.60;;;12.10
65823;BMP180;52585;47.566;19.056;2023-02-18T07:31:00;100711.60;;;12.10
65823;BMP180;52585;47.566;19.056;2023-02-18T07:33:26;100704.80;;;12.10
65823;BMP180;52585;47.566;19.056;2023-02-18T07:35:57;100707.80;;;12.08
65823;BMP180;52585;47.566;19.056;2023-02-18T07:38:24;100706.40;;;12.10
65823;BMP180;52585;47.566;19.056;2023-02-18T07:40:51;100708.40;;;12.10
65823;BMP180;52585;47.566;19.056;2023-02-18T07:43:17;100709.80;;;12.10
65823;BMP180;52585;47.566;19.056;2023-02-18T07:45:43;100711.40;;;12.16
65823;BMP180;52585;47.566;19.056;2023-02-18T07:48:10;100708.60;;;12.20
65823;BMP180;52585;47.566;19.056;2023-02-18T07:50:43;100711.00;;;12.20
65823;BMP180;52585;47.566;19.056;2023-02-18T07:53:11;100702.20;;;12.20
65823;BMP180;52585;47.566;19.056;2023-02-18T07:55:38;100703.60;;;12.20
65823;BMP180;52585;47.566;19.056;2023-02-18T07:58:22;100700.40;;;12.20
65823;BMP180;52585;47.566;19.056;2023-02-18T08:00:49;100699.20;;;12.20
65823;BMP180;52585;47.566;19.056;2023-02-18T08:03:17;100698.20;;;12.30
65823;BMP180;52585;47.566;19.056;2023-02-18T08:05:43;100694.80;;;12.30
65823;BMP180;52585;47.566;19.056;2023-02-18T08:08:15;100699.20;;;12.30
65823;BMP180;52585;47.566;19.056;2023-02-18T08:10:42;100698.00;;;12.40
65823;BMP180;52585;47.566;19.056;2023-02-18T08:13:09;100697.80;;;12.40
65823;BMP180;52585;47.566;19.056;2023-02-18T08:15:35;100699.60;;;12.40
65823;BMP180;52585;47.566;19.056;2023-02-18T08:18:01;100704.40;;;12.50
65823;BMP180;52585;47.566;19.056;2023-02-18T08:20:28;100705.80;;;12.50
65823;BMP180;52585;47.566;19.056;2023-02-18T08:22:53;100705.40;;;12.50
65823;BMP180;52585;47.566;19.056;2023-02-18T08:25:19;100701.60;;;12.58
65823;BMP180;52585;47.566;19.056;2023-02-18T08:27:44;100700.80;;;12.60
65823;BMP180;52585;47.566;19.056;2023-02-18T08:30:11;100705.60;;;12.60
65823;BMP180;52585;47.566;19.056;2023-02-18T08:32:37;100705.00;;;12.60
65823;BMP180;52585;47.566;19.056;2023-02-18T08:35:04;100712.20;;;12.68
65823;BMP180;52585;47.566;19.056;2023-02-18T08:37:30;100701.20;;;12.70
65823;BMP180;52585;47.566;19.056;2023-02-18T08:39:56;100709.40;;;12.70
65823;BMP180;52585;47.566;19.056;2023-02-18T08:42:21;100712.80;;;12.70
65823;BMP180;52585;47.566;19.056;2023-02-18T08:44:47;100719.20;;;12.70
65823;BMP180;52585;47.566;19.056;2023-02-18T08:47:12;100711.20;;;12.80
65823;BMP180;52585;47.566;19.056;2023-02-18T08:49:38;100712.60;;;12.80
65823;BMP180;52585;47.566;19.056;2023-02-18T08:52:04;100712.00;;;12.80
65823;BMP180;52585;47.566;19.056;2023-02-18T08:54:30;100712.00;;;12.80
65823;BMP180;52585;47.566;19.056;2023-02-18T08:56:56;100712.00;;;12.88
65823;BMP180;52585;47.566;19.056;2023-02-18T08:59:25;100712.80;;;12.90
65823;BMP180;52585;47.566;19.056;2023-02-18T09:01:51;100711.60;;;12.90
65823;BMP180;52585;47.566;19.056;2023-02-18T09:04:17;100701.60;;;12.90
65823;BMP180;52585;47.566;19.056;2023-02-18T09:06:46;100696.60;;;12.90
65823;BMP180;52585;47.566;19.056;2023-02-18T09:09:13;100700.20;;;12.90
65823;BMP180;52585;47.566;19.056;2023-02-18T09:11:39;100701.60;;;12.90
65823;BMP180;52585;47.566;19.056;2023-02-18T09:14:04;100701.40;;;12.90
65823;BMP180;52585;47.566;19.056;2023-02-18T09:16:30;100697.20;;;12.90
65823;BMP180;52585;47.566;19.056;2023-02-18T09:18:56;100698.40;;;12.90
65823;BMP180;52585;47.566;19.056;2023-02-18T09:21:25;100693.40;;;12.92
65823;BMP180;52585;47.566;19.056;2023-02-18T09:23:52;100692.60;;;13.00
65823;BMP180;52585;47.566;19.056;2023-02-18T09:26:20;100694.80;;;13.00
65823;BMP180;52585;47.566;19.056;2023-02-18T09:28:48;100684.20;;;13.00
65823;BMP180;52585;47.566;19.056;2023-02-18T09:31:19;100693.40;;;13.06
65823;BMP180;52585;47.566;19.056;2023-02-18T09:33:53;100693.60;;;13.10
65823;BMP180;52585;47.566;19.056;2023-02-18T09:36:19;100685.80;;;13.10
65823;BMP180;52585;47.566;19.056;2023-02-18T09:38:46;100676.20;;;13.10
65823;BMP180;52585;47.566;19.056;2023-02-18T09:44:27;100683.60;;;13.20
65823;BMP180;52585;47.566;19.056;2023-02-18T09:49:34;100686.40;;;13.30
65823;BMP180;52585;47.566;19.056;2023-02-18T09:52:13;100690.00;;;13.32
65823;BMP180;52585;47.566;19.056;2023-02-18T09:54:41;100691.60;;;13.40
65823;BMP180;52585;47.566;19.056;2023-02-18T09:57:41;100683.00;;;13.50
65823;BMP180;52585;47.566;19.056;2023-02-18T10:00:16;100684.40;;;13.60
65823;BMP180;52585;47.566;19.056;2023-02-18T10:02:57;100686.20;;;13.70
65823;BMP180;52585;47.566;19.056;2023-02-18T10:05:27;100682.00;;;13.70
65823;BMP180;52585;47.566;19.056;2023-02-18T10:08:01;100688.80;;;13.80
65823;BMP180;52585;47.566;19.056;2023-02-18T10:10:44;100684.40;;;13.80
65823;BMP180;52585;47.566;19.056;2023-02-18T10:13:17;100686.20;;;13.90
65823;BMP180;52585;47.566;19.056;2023-02-18T10:15:44;100674.00;;;13.90
65823;BMP180;52585;47.566;19.056;2023-02-18T10:18:30;100682.20;;;13.90
65823;BMP180;52585;47.566;19.056;2023-02-18T10:24:13;100688.80;;;13.90
65823;BMP180;52585;47.566;19.056;2023-02-18T10:26:41;100675.60;;;13.90
65823;BMP180;52585;47.566;19.056;2023-02-18T10:29:16;100690.60;;;13.82
65823;BMP180;52585;47.566;19.056;2023-02-18T10:31:50;100693.00;;;13.80
65823;BMP180;52585;47.566;19.056;2023-02-18T10:34:38;100688.00;;;13.80
65823;BMP180;52585;47.566;19.056;2023-02-18T10:37:56;100686.60;;;13.80
65823;BMP180;52585;47.566;19.056;2023-02-18T10:41:03;100692.20;;;13.78
65823;BMP180;52585;47.566;19.056;2023-02-18T10:52:25;100687.60;;;13.60
65823;BMP180;52585;47.566;19.056;2023-02-18T10:55:02;100685.80;;;13.60
65823;BMP180;52585;47.566;19.056;2023-02-18T10:57:30;100683.40;;;13.50
65823;BMP180;52585;47.566;19.056;2023-02-18T10:59:59;100675.60;;;13.50
65823;BMP180;52585;47.566;19.056;2023-02-18T11:02:31;100675.00;;;13.42
65823;BMP180;52585;47.566;19.056;2023-02-18T11:04:59;100676.60;;;13.40
65823;BMP180;52585;47.566;19.056;2023-02-18T11:07:33;100673.00;;;13.40
65823;BMP180;52585;47.566;19.056;2023-02-18T11:10:14;100670.60;;;13.40
65823;BMP180;52585;47.566;19.056;2023-02-18T11:13:08;100666.40;;;13.32
65823;BMP180;52585;47.566;19.056;2023-02-18T11:15:35;100660.20;;;13.30
65823;BMP180;52585;47.566;19.056;2023-02-18T11:21:05;100649.80;;;13.30
65823;BMP180;52585;47.566;19.056;2023-02-18T11:23:44;100639.00;;;13.30
65823;BMP180;52585;47.566;19.056;2023-02-18T11:26:13;100636.20;;;13.30
65823;BMP180;52585;47.566;19.056;2023-02-18T11:28:44;100633.40;;;13.30
65823;BMP180;52585;47.566;19.056;2023-02-18T11:31:19;100621.40;;;13.30
65823;BMP180;52585;47.566;19.056;2023-02-18T11:33:57;100622.40;;;13.30
65823;BMP180;52585;47.566;19.056;2023-02-18T11:36:34;100618.80;;;13.30
65823;BMP180;52585;47.566;19.056;2023-02-18T11:39:04;100615.40;;;13.30
65823;BMP180;52585;47.566;19.056;2023-02-18T11:41:39;100606.80;;;13.30
65823;BMP180;52585;47.566;19.056;2023-02-18T11:44:15;100601.20;;;13.30
65823;BMP180;52585;47.566;19.056;2023-02-18T11:49:24;100592.40;;;13.40
65823;BMP180;52585;47.566;19.056;2023-02-18T11:51:51;100590.80;;;13.40
65823;BMP180;52585;47.566;19.056;2023-02-18T11:54:30;100582.20;;;13.40
65823;BMP180;52585;47.566;19.056;2023-02-18T11:57:08;100576.60;;;13.46
65823;BMP180;52585;47.566;19.056;2023-02-18T11:59:38;100564.20;;;13.50
65823;BMP180;52585;47.566;19.056;2023-02-18T12:04:44;100551.00;;;13.70
65823;BMP180;52585;47.566;19.056;2023-02-18T12:07:47;100551.00;;;13.80
65823;BMP180;52585;47.566;19.056;2023-02-18T12:10:42;100537.80;;;13.80
65823;BMP180;52585;47.566;19.056;2023-02-18T12:20:20;100530.20;;;13.90
65823;BMP180;52585;47.566;19.056;2023-02-18T12:22:27;100522.00;;;13.90
65823;BMP180;52585;47.566;19.056;2023-02-18T12:25:24;100511.00;;;13.90
65823;BMP180;52585;47.566;19.056;2023-02-18T13:06:52;100460.20;;;14.44
65823;BMP180;52585;47.566;19.056;2023-02-18T13:12:21;100453.20;;;14.50
65823;BMP180;52585;47.566;19.056;2023-02-18T13:15:02;100452.60;;;14.50
65823;BMP180;52585;47.566;19.056;2023-02-18T13:17:34;100444.60;;;14.50
65823;BMP180;52585;47.566;19.056;2023-02-18T13:20:20;100442.20;;;14.58
65823;BMP180;52585;47.566;19.056;2023-02-18T13:22:48;100442.00;;;14.60
65823;BMP180;52585;47.566;19.056;2023-02-18T13:25:17;100438.40;;;14.60
65823;BMP180;52585;47.566;19.056;2023-02-18T13:28:43;100444.40;;;14.60
65823;BMP180;52585;47.566;19.056;2023-02-18T13:31:18;100441.00;;;14.58
65823;BMP180;52585;47.566;19.056;2023-02-18T13:34:32;100433.40;;;14.54
65823;BMP180;52585;47.566;19.056;2023-02-18T13:39:57;100429.00;;;14.60
65823;BMP180;52585;47.566;19.056;2023-02-18T13:47:46;100415.20;;;14.60
65823;BMP180;52585;47.566;19.056;2023-02-18T13:50:27;100412.20;;;14.60
65823;BMP180;52585;47.566;19.056;2023-02-18T13:56:26;100403.20;;;14.60
65823;BMP180;52585;47.566;19.056;2023-02-18T13:59:16;100401.20;;;14.60
65823;BMP180;52585;47.566;19.056;2023-02-18T14:01:49;100394.20;;;14.60
65823;BMP180;52585;47.566;19.056;2023-02-18T14:09:44;100373.60;;;14.60
65823;BMP180;52585;47.566;19.056;2023-02-18T14:12:36;100373.80;;;14.60
65823;BMP180;52585;47.566;19.056;2023-02-18T14:25:57;100358.80;;;14.60
65823;BMP180;52585;47.566;19.056;2023-02-18T14:33:59;100345.40;;;14.60
65823;BMP180;52585;47.566;19.056;2023-02-18T14:42:56;100340.80;;;14.64
65823;BMP180;52585;47.566;19.056;2023-02-18T14:45:55;100333.40;;;14.70
65823;BMP180;52585;47.566;19.056;2023-02-18T14:51:23;100322.40;;;14.70
65823;BMP180;52585;47.566;19.056;2023-02-18T14:53:51;100313.80;;;14.70
65823;BMP180;52585;47.566;19.056;2023-02-18T14:56:20;100311.60;;;14.60
65823;BMP180;52585;47.566;19.056;2023-02-18T14:58:51;100313.40;;;14.60
65823;BMP180;52585;47.566;19.056;2023-02-18T15:01:32;100310.00;;;14.60
65823;BMP180;52585;47.566;19.056;2023-02-18T15:04:01;100304.80;;;14.60
65823;BMP180;52585;47.566;19.056;2023-02-18T15:08:54;100307.60;;;14.60
65823;BMP180;52585;47.566;19.056;2023-02-18T15:11:29;100306.20;;;14.60
65823;BMP180;52585;47.566;19.056;2023-02-18T15:13:59;100299.00;;;14.60
65823;BMP180;52585;47.566;19.056;2023-02-18T15:16:33;100299.40;;;14.60
65823;BMP180;52585;47.566;19.056;2023-02-18T15:19:03;100294.00;;;14.60
65823;BMP180;52585;47.566;19.056;2023-02-18T15:21:32;100293.80;;;14.60
65823;BMP180;52585;47.566;19.056;2023-02-18T15:24:26;100291.60;;;14.60
65823;BMP180;52585;47.566;19.056;2023-02-18T15:27:00;100287.20;;;14.52
65823;BMP180;52585;47.566;19.056;2023-02-18T15:29:34;100288.20;;;14.50
65823;BMP180;52585;47.566;19.056;2023-02-18T15:34:42;100288.40;;;14.42
65823;BMP180;52585;47.566;19.056;2023-02-18T15:37:14;100289.80;;;14.40
65823;BMP180;52585;47.566;19.056;2023-02-18T15:39:41;100289.00;;;14.40
65823;BMP180;52585;47.566;19.056;2023-02-18T15:45:43;100282.40;;;14.30
65823;BMP180;52585;47.566;19.056;2023-02-18T15:47:46;100274.60;;;14.30
65823;BMP180;52585;47.566;19.056;2023-02-18T15:50:48;100262.20;;;14.28
65823;BMP180;52585;47.566;19.056;2023-02-18T15:53:17;100262.00;;;14.20
65823;BMP180;52585;47.566;19.056;2023-02-18T15:55:49;100259.00;;;14.10
65823;BMP180;52585;47.566;19.056;2023-02-18T15:58:30;100264.60;;;14.10
65823;BMP180;52585;47.566;19.056;2023-02-18T16:01:25;100269.40;;;14.00
65823;BMP180;52585;47.566;19.056;2023-02-18T16:03:54;100267.80;;;13.90
65823;BMP180;52585;47.566;19.056;2023-02-18T16:06:30;100266.60;;;13.90
65823;BMP180;52585;47.566;19.056;2023-02-18T16:09:13;100267.00;;;13.80
65823;BMP180;52585;47.566;19.056;2023-02-18T16:11:49;100261.40;;;13.72
65823;BMP180;52585;47.566;19.056;2023-02-18T16:14:48;100260.80;;;13.70
65823;BMP180;52585;47.566;19.056;2023-02-18T16:17:28;100262.00;;;13.60
65823;BMP180;52585;47.566;19.056;2023-02-18T16:20:42;100269.00;;;13.60
65823;BMP180;52585;47.566;19.056;2023-02-18T16:22:49;100268.20;;;13.50
65823;BMP180;52585;47.566;19.056;2023-02-18T16:25:23;100269.00;;;13.50
65823;BMP180;52585;47.566;19.056;2023-02-18T16:30:26;100258.00;;;13.40
65823;BMP180;52585;47.566;19.056;2023-02-18T16:32:55;100251.80;;;13.30
65823;BMP180;52585;47.566;19.056;2023-02-18T16:35:25;100252.40;;;13.30
65823;BMP180;52585;47.566;19.056;2023-02-18T16:37:52;100250.80;;;13.26
65823;BMP180;52585;47.566;19.056;2023-02-18T16:40:35;100248.80;;;13.20
65823;BMP180;52585;47.566;19.056;2023-02-18T16:43:17;100245.60;;;13.20
65823;BMP180;52585;47.566;19.056;2023-02-18T16:45:56;100248.20;;;13.12
65823;BMP180;52585;47.566;19.056;2023-02-18T16:51:05;100241.80;;;13.00
65823;BMP180;52585;47.566;19.056;2023-02-18T16:53:32;100252.60;;;13.00
65823;BMP180;52585;47.566;19.056;2023-02-18T16:55:58;100258.20;;;13.00
65823;BMP180;52585;47.566;19.056;2023-02-18T16:58:25;100261.20;;;12.90
65823;BMP180;52585;47.566;19.056;2023-02-18T17:00:52;100262.00;;;12.90
65823;BMP180;52585;47.566;19.056;2023-02-18T17:03:18;100262.40;;;12.90
65823;BMP180;52585;47.566;19.056;2023-02-18T17:05:44;100275.20;;;12.90